createdAt,value
2019-02-28T00:00:21.269Z,27.63
2019-02-28T00:02:49.716Z,28.03
2019-02-28T00:05:18.145Z,27.80
2019-02-28T00:07:49.599Z,28.20
2019-02-28T00:10:16.777Z,30.03
2019-02-28T00:12:47.910Z,27.20
2019-02-28T00:15:15.392Z,29.73
2019-02-28T00:17:43.834Z,30.00
2019-02-28T00:20:12.526Z,27.30
2019-02-28T00:22:41.894Z,24.97
2019-02-28T00:25:11.058Z,31.50
2019-02-28T00:27:39.496Z,32.07
2019-02-28T00:30:11.157Z,35.87
2019-02-28T00:32:39.629Z,36.57
2019-02-28T00:35:12.958Z,37.47
2019-02-28T00:37:39.088Z,35.53
2019-02-28T00:40:11.182Z,38.70
2019-02-28T00:42:39.618Z,40.80
2019-02-28T00:45:15.374Z,39.13
2019-02-28T00:47:43.838Z,42.03
2019-02-28T00:50:12.972Z,36.60
2019-02-28T00:52:41.683Z,40.57
2019-02-28T00:55:15.485Z,43.27
2019-02-28T00:57:44.088Z,42.63
2019-02-28T01:00:16.017Z,42.17
2019-02-28T01:02:44.445Z,44.37
2019-02-28T01:05:12.889Z,41.40
2019-02-28T01:07:41.460Z,43.33
2019-02-28T01:10:13.513Z,38.17
2019-02-28T01:12:42.213Z,41.80
2019-02-28T01:15:17.654Z,44.80
2019-02-28T01:17:46.400Z,43.33
2019-02-28T01:20:16.598Z,45.03
2019-02-28T01:22:45.164Z,42.23
2019-02-28T01:25:19.704Z,40.30
2019-02-28T01:27:48.133Z,44.00
2019-02-28T01:30:16.841Z,42.80
2019-02-28T01:32:49.787Z,46.73
2019-02-28T01:35:18.144Z,43.83
2019-02-28T01:37:46.577Z,39.67
2019-02-28T01:40:15.556Z,43.67
2019-02-28T01:42:44.001Z,40.67
2019-02-28T01:45:13.852Z,41.20
2019-02-28T01:47:42.301Z,42.47
2019-02-28T01:50:14.400Z,40.47
2019-02-28T01:52:45.899Z,39.30
2019-02-28T01:55:13.483Z,41.03
2019-02-28T01:57:43.985Z,43.27
2019-02-28T02:00:18.823Z,41.00
2019-02-28T02:02:47.261Z,44.40
2019-02-28T02:05:16.933Z,43.37
2019-02-28T02:07:46.013Z,38.80
2019-02-28T02:10:21.806Z,40.40
2019-02-28T02:12:53.074Z,41.70
2019-02-28T02:15:21.797Z,40.47
2019-02-28T02:17:50.223Z,39.87
2019-02-28T02:20:18.688Z,42.73
2019-02-28T02:22:47.299Z,43.00
2019-02-28T02:25:15.809Z,37.33
2019-02-28T02:27:44.236Z,43.83
2019-02-28T02:30:18.425Z,43.30
2019-02-28T02:32:46.858Z,42.03
2019-02-28T02:35:15.868Z,41.87
2019-02-28T02:37:44.295Z,44.30
2019-02-28T02:40:16.896Z,42.50
2019-02-28T02:42:48.382Z,44.13
2019-02-28T02:45:15.919Z,44.30
2019-02-28T02:47:44.401Z,45.17
2019-02-28T02:50:14.964Z,43.73
2019-02-28T02:52:43.735Z,44.33
2019-02-28T02:55:13.383Z,42.83
2019-02-28T02:57:42.280Z,46.10
2019-02-28T03:00:17.997Z,44.90
2019-02-28T03:02:46.685Z,46.17
2019-02-28T03:05:15.117Z,43.47
2019-02-28T03:07:43.752Z,38.57
2019-02-28T03:10:17.506Z,40.60
2019-02-28T03:12:45.485Z,45.77
2019-02-28T03:15:15.986Z,44.43
2019-02-28T03:17:47.219Z,43.13
2019-02-28T03:20:15.528Z,47.17
2019-02-28T03:22:43.992Z,43.00
2019-02-28T03:25:16.855Z,44.30
2019-02-28T03:27:45.350Z,48.43
2019-02-28T03:30:26.324Z,48.17
2019-02-28T03:32:46.641Z,42.27
2019-02-28T03:35:15.178Z,45.43
2019-02-28T03:37:43.668Z,44.43
2019-02-28T03:40:13.872Z,43.20
2019-02-28T03:42:42.390Z,47.63
2019-02-28T03:45:12.785Z,45.57
2019-02-28T03:47:41.245Z,47.20
2019-02-28T03:50:10.748Z,46.43
2019-02-28T03:52:43.914Z,50.70
2019-02-28T03:55:14.741Z,47.20
2019-02-28T03:57:43.471Z,50.33
2019-02-28T04:00:20.517Z,48.47
2019-02-28T04:02:56.613Z,48.97
2019-02-28T04:05:26.504Z,46.67
2019-02-28T04:07:53.655Z,49.53
2019-02-28T04:10:22.162Z,49.70
2019-02-28T04:12:49.645Z,47.03
2019-02-28T04:15:19.420Z,46.27
2019-02-28T04:17:47.937Z,48.73
2019-02-28T04:20:16.371Z,51.20
2019-02-28T04:22:44.808Z,48.33
2019-02-28T04:25:13.309Z,51.47
2019-02-28T04:27:41.993Z,46.30
2019-02-28T04:30:14.846Z,47.90
2019-02-28T04:32:43.316Z,50.47
2019-02-28T04:35:12.585Z,44.30
2019-02-28T04:37:45.500Z,48.10
2019-02-28T04:40:13.123Z,51.90
2019-02-28T04:42:41.632Z,49.43
2019-02-28T04:45:14.601Z,47.30
2019-02-28T04:47:43.051Z,51.50
2019-02-28T04:50:12.780Z,50.03
2019-02-28T04:52:46.795Z,50.47
2019-02-28T04:55:12.210Z,47.77
2019-02-28T04:57:40.649Z,48.67
2019-02-28T05:00:14.561Z,50.83
2019-02-28T05:02:43.004Z,51.17
2019-02-28T05:05:12.597Z,51.90
2019-02-28T05:07:42.003Z,52.03
2019-02-28T05:10:11.687Z,50.33
2019-02-28T05:12:41.090Z,50.73
2019-02-28T05:15:14.743Z,51.50
2019-02-28T05:17:43.194Z,49.17
2019-02-28T05:20:12.444Z,50.07
2019-02-28T05:22:41.357Z,49.50
2019-02-28T05:25:11.264Z,52.80
2019-02-28T05:27:39.974Z,51.70
2019-02-28T05:30:17.885Z,52.33
2019-02-28T05:32:43.652Z,50.50
2019-02-28T05:35:12.096Z,54.47
2019-02-28T05:37:46.916Z,55.20
2019-02-28T05:40:13.851Z,56.07
2019-02-28T05:42:42.325Z,52.13
2019-02-28T05:45:14.469Z,52.70
2019-02-28T05:47:46.156Z,57.93
2019-02-28T05:50:17.240Z,53.13
2019-02-28T05:52:45.392Z,58.67
2019-02-28T05:55:13.878Z,58.63
2019-02-28T05:57:44.655Z,53.93
2019-02-28T06:00:16.146Z,58.53
2019-02-28T06:02:44.796Z,59.23
2019-02-28T06:05:13.573Z,54.47
2019-02-28T06:07:42.003Z,59.97
2019-02-28T06:10:14.520Z,58.60
2019-02-28T06:12:44.788Z,57.40
2019-02-28T06:15:14.682Z,58.50
2019-02-28T06:17:43.402Z,65.30
2019-02-28T06:20:16.458Z,61.43
2019-02-28T06:22:43.150Z,57.77
2019-02-28T06:25:12.945Z,60.80
2019-02-28T06:27:42.303Z,54.97
2019-02-28T06:30:16.617Z,59.50
2019-02-28T06:32:45.392Z,49.47
2019-02-28T06:35:17.730Z,65.77
2019-02-28T06:37:43.986Z,61.90
2019-02-28T06:40:14.746Z,59.57
2019-02-28T06:42:43.474Z,66.47
2019-02-28T06:45:18.484Z,63.33
2019-02-28T06:47:49.538Z,61.23
2019-02-28T06:50:17.500Z,65.30
2019-02-28T06:52:48.890Z,60.07
2019-02-28T06:55:27.157Z,56.20
2019-02-28T06:57:58.867Z,61.50
2019-02-28T07:00:25.921Z,57.70
2019-02-28T07:02:54.379Z,57.90
2019-02-28T07:05:25.703Z,63.57
2019-02-28T07:08:15.249Z,66.37
2019-02-28T07:10:44.957Z,65.50
2019-02-28T07:13:13.846Z,60.33
2019-02-28T07:15:42.293Z,58.77
2019-02-28T07:18:10.735Z,61.30
2019-02-28T07:20:39.177Z,69.73
2019-02-28T07:23:07.616Z,62.67
2019-02-28T07:25:36.141Z,62.57
2019-02-28T07:28:04.678Z,74.37
2019-02-28T07:30:33.119Z,68.97
2019-02-28T07:33:01.555Z,61.77
2019-02-28T07:35:33.786Z,70.83
2019-02-28T07:38:00.284Z,72.20
2019-02-28T07:40:28.719Z,72.80
2019-02-28T07:42:57.243Z,70.23
2019-02-28T07:45:25.665Z,53.63
2019-02-28T07:47:54.110Z,57.57
2019-02-28T07:50:22.636Z,70.90
2019-02-28T07:52:53.120Z,70.03
2019-02-28T07:55:21.745Z,79.60
2019-02-28T07:57:54.239Z,78.60
2019-02-28T08:00:22.379Z,74.37
2019-02-28T08:02:50.814Z,73.87
2019-02-28T08:05:19.734Z,77.63
2019-02-28T08:07:51.972Z,68.83
2019-02-28T08:10:23.897Z,60.90
2019-02-28T08:12:52.447Z,68.47
2019-02-28T08:15:28.718Z,59.97
2019-02-28T08:17:57.245Z,67.93
2019-02-28T08:20:25.661Z,69.67
2019-02-28T08:22:56.746Z,64.47
2019-02-28T08:25:24.402Z,64.63
2019-02-28T08:27:52.909Z,71.97
2019-02-28T08:30:26.618Z,68.00
2019-02-28T08:32:55.330Z,57.63
2019-02-28T08:35:23.824Z,62.50
2019-02-28T08:37:57.145Z,62.33
2019-02-28T08:40:26.510Z,62.70
2019-02-28T08:42:55.780Z,56.80
2019-02-28T08:45:24.564Z,60.57
2019-02-28T08:47:56.836Z,54.73
2019-02-28T08:50:26.644Z,53.50
2019-02-28T08:52:57.846Z,55.10
2019-02-28T08:55:29.067Z,49.40
2019-02-28T08:58:01.326Z,50.13
2019-02-28T09:00:31.019Z,51.00
2019-02-28T09:02:57.042Z,43.33
2019-02-28T09:05:27.785Z,43.97
2019-02-28T09:07:58.224Z,48.60
2019-02-28T09:10:27.478Z,48.50
2019-02-28T09:12:55.902Z,53.57
2019-02-28T09:15:30.078Z,50.53
2019-02-28T09:17:58.277Z,42.20
2019-02-28T09:20:25.624Z,45.07
2019-02-28T09:22:54.084Z,45.90
2019-02-28T09:25:24.165Z,45.10
2019-02-28T09:27:55.218Z,33.57
2019-02-28T09:30:30.452Z,32.47
2019-02-28T09:32:59.380Z,32.30
2019-02-28T09:35:27.845Z,32.77
2019-02-28T09:37:56.297Z,31.67
2019-02-28T09:40:25.784Z,27.23
2019-02-28T09:42:54.922Z,26.37
2019-02-28T09:45:26.201Z,26.40
2019-02-28T09:47:54.622Z,25.20
2019-02-28T09:50:23.654Z,25.93
2019-02-28T09:52:52.074Z,27.20
2019-02-28T09:55:20.514Z,25.97
2019-02-28T09:57:53.772Z,26.83
2019-02-28T10:00:21.805Z,29.33
2019-02-28T10:02:50.432Z,24.40
2019-02-28T10:05:18.872Z,23.80
2019-02-28T10:07:47.293Z,26.13
2019-02-28T10:10:27.030Z,28.13
2019-02-28T10:12:56.812Z,26.87
2019-02-28T10:15:26.191Z,26.80
2019-02-28T10:17:54.623Z,26.47
2019-02-28T10:20:27.200Z,27.00
2019-02-28T10:22:56.161Z,28.37
2019-02-28T10:25:24.597Z,30.30
2019-02-28T10:27:54.679Z,30.87
2019-02-28T10:30:31.851Z,25.57
2019-02-28T10:32:55.280Z,29.53
2019-02-28T10:35:23.780Z,26.40
2019-02-28T10:37:57.125Z,24.53
2019-02-28T10:40:30.183Z,25.00
2019-02-28T10:42:58.788Z,25.03
2019-02-28T10:45:27.870Z,25.33
2019-02-28T10:47:56.316Z,25.43
2019-02-28T10:50:35.137Z,25.97
2019-02-28T10:53:05.965Z,26.13
2019-02-28T10:55:35.157Z,23.90
2019-02-28T10:58:03.604Z,26.50
2019-02-28T11:00:34.678Z,28.00
2019-02-28T11:03:03.613Z,27.17
2019-02-28T11:05:36.369Z,27.67
2019-02-28T11:08:05.981Z,28.07
2019-02-28T11:10:37.399Z,24.70
2019-02-28T11:13:08.365Z,23.87
2019-02-28T11:15:37.017Z,24.00
2019-02-28T11:18:09.615Z,24.80
2019-02-28T11:20:37.084Z,22.07
2019-02-28T11:23:07.658Z,21.77
2019-02-28T11:25:36.693Z,24.13
2019-02-28T11:28:05.548Z,21.93
2019-02-28T11:30:36.166Z,22.13
2019-02-28T11:33:05.686Z,22.10
2019-02-28T11:35:34.512Z,18.80
2019-02-28T11:38:04.898Z,20.40
2019-02-28T11:40:33.658Z,21.10
2019-02-28T11:43:03.908Z,21.40
2019-02-28T11:45:35.673Z,19.10
2019-02-28T11:48:06.776Z,17.37
2019-02-28T11:50:35.201Z,21.30
2019-02-28T11:53:05.904Z,20.83
2019-02-28T11:55:33.797Z,21.40
2019-02-28T11:58:02.428Z,20.60
2019-02-28T12:00:36.769Z,19.77
2019-02-28T12:03:05.946Z,19.10
2019-02-28T12:05:35.805Z,20.10
2019-02-28T12:08:09.357Z,21.47
2019-02-28T12:10:34.979Z,18.80
2019-02-28T12:13:03.434Z,20.67
2019-02-28T12:15:38.223Z,19.70
2019-02-28T12:18:05.208Z,20.70
2019-02-28T12:20:33.722Z,20.90
2019-02-28T12:23:02.153Z,20.23
2019-02-28T12:25:30.616Z,18.17
2019-02-28T12:27:59.373Z,17.23
2019-02-28T12:30:34.004Z,17.73
2019-02-28T12:33:02.435Z,18.70
2019-02-28T12:35:37.486Z,19.43
2019-02-28T12:38:01.317Z,18.63
2019-02-28T12:40:34.696Z,18.77
2019-02-28T12:43:08.720Z,17.57
2019-02-28T12:45:47.508Z,19.37
2019-02-28T12:48:16.312Z,19.93
2019-02-28T12:50:45.042Z,16.77
2019-02-28T12:53:13.569Z,16.27
2019-02-28T12:55:42.070Z,17.10
2019-02-28T12:58:10.498Z,17.63
2019-02-28T13:00:44.088Z,18.57
2019-02-28T13:03:12.796Z,18.70
2019-02-28T13:05:42.946Z,18.43
2019-02-28T13:08:11.381Z,18.47
2019-02-28T13:10:41.325Z,18.10
2019-02-28T13:13:09.986Z,18.33
2019-02-28T13:15:38.413Z,18.47
2019-02-28T13:18:08.967Z,19.33
2019-02-28T13:20:40.645Z,16.70
2019-02-28T13:23:09.344Z,18.60
2019-02-28T13:25:37.818Z,20.70
2019-02-28T13:28:07.889Z,21.47
2019-02-28T13:30:39.859Z,17.27
2019-02-28T13:33:06.811Z,17.80
2019-02-28T13:35:45.324Z,18.10
2019-02-28T13:38:08.768Z,17.30
2019-02-28T13:40:37.225Z,17.13
2019-02-28T13:43:05.659Z,19.03
2019-02-28T13:45:34.325Z,18.00
2019-02-28T13:48:03.517Z,17.07
2019-02-28T13:50:38.212Z,21.43
2019-02-28T13:53:17.464Z,17.87
2019-02-28T13:55:38.901Z,18.83
2019-02-28T13:58:07.789Z,18.50
2019-02-28T14:00:43.973Z,19.37
2019-02-28T14:03:16.889Z,19.73
2019-02-28T14:05:44.583Z,20.27
2019-02-28T14:08:13.573Z,17.93
2019-02-28T14:10:42.844Z,16.60
2019-02-28T14:13:11.372Z,18.20
2019-02-28T14:15:42.426Z,15.90
2019-02-28T14:18:11.683Z,18.27
2019-02-28T14:20:40.201Z,21.00
2019-02-28T14:23:09.119Z,16.10
2019-02-28T14:25:39.779Z,14.67
2019-02-28T14:28:07.879Z,14.93
2019-02-28T14:30:36.452Z,15.80
2019-02-28T14:33:05.491Z,16.87
2019-02-28T14:35:36.597Z,16.90
2019-02-28T14:38:04.567Z,15.57
2019-02-28T14:40:33.009Z,16.03
2019-02-28T14:43:01.462Z,16.20
2019-02-28T14:45:39.283Z,16.97
2019-02-28T14:48:06.015Z,16.07
2019-02-28T14:50:34.468Z,15.77
2019-02-28T14:53:02.906Z,14.00
2019-02-28T14:55:32.727Z,17.30
2019-02-28T14:58:01.530Z,18.73
2019-02-28T15:00:32.845Z,17.00
2019-02-28T15:03:03.084Z,18.67
2019-02-28T15:05:35.779Z,17.50
2019-02-28T15:08:04.582Z,17.57
2019-02-28T15:10:34.540Z,17.70
2019-02-28T15:13:04.930Z,15.00
2019-02-28T15:15:36.186Z,16.00
2019-02-28T15:18:05.046Z,15.40
2019-02-28T15:20:33.553Z,14.50
2019-02-28T15:23:02.203Z,13.57
2019-02-28T15:25:31.302Z,15.90
2019-02-28T15:27:59.747Z,15.50
2019-02-28T15:30:33.667Z,14.53
2019-02-28T15:33:01.152Z,15.67
2019-02-28T15:35:30.107Z,16.77
2019-02-28T15:37:58.840Z,17.13
2019-02-28T15:40:36.108Z,14.43
2019-02-28T15:43:05.091Z,17.73
2019-02-28T15:45:36.236Z,16.30
2019-02-28T15:48:04.597Z,17.70
2019-02-28T15:50:33.421Z,16.20
2019-02-28T15:53:02.600Z,15.40
2019-02-28T15:55:35.046Z,19.23
2019-02-28T15:58:02.623Z,18.33
2019-02-28T16:00:36.086Z,16.87
2019-02-28T16:03:05.056Z,16.40
2019-02-28T16:05:33.487Z,15.37
2019-02-28T16:08:08.761Z,16.43
2019-02-28T16:10:33.867Z,17.83
2019-02-28T16:13:02.579Z,16.97
2019-02-28T16:15:31.068Z,16.17
2019-02-28T16:17:59.505Z,15.67
2019-02-28T16:20:28.449Z,17.73
2019-02-28T16:22:58.504Z,17.33
2019-02-28T16:25:37.661Z,16.10
2019-02-28T16:28:08.894Z,16.30
2019-02-28T16:30:39.276Z,17.57
2019-02-28T16:33:07.836Z,15.60
2019-02-28T16:35:36.257Z,15.73
2019-02-28T16:38:06.352Z,19.23
2019-02-28T16:40:35.018Z,19.00
2019-02-28T16:43:03.628Z,15.10
2019-02-28T16:45:37.399Z,17.80
2019-02-28T16:48:07.541Z,18.77
2019-02-28T16:50:36.174Z,19.00
2019-02-28T16:53:05.151Z,18.67
2019-02-28T16:55:34.021Z,19.27
2019-02-28T16:58:02.484Z,16.93
2019-02-28T17:00:30.989Z,16.90
2019-02-28T17:02:59.425Z,19.03
2019-02-28T17:05:28.375Z,17.27
2019-02-28T17:07:57.652Z,14.40
2019-02-28T17:10:30.494Z,15.73
2019-02-28T17:13:02.912Z,15.33
2019-02-28T17:15:44.349Z,14.97
2019-02-28T17:18:18.466Z,15.93
2019-02-28T17:20:48.041Z,15.47
2019-02-28T17:23:18.505Z,15.50
2019-02-28T17:25:46.721Z,15.50
2019-02-28T17:28:19.485Z,14.50
2019-02-28T17:30:49.579Z,15.27
2019-02-28T17:33:18.184Z,15.20
2019-02-28T17:35:46.704Z,15.87
2019-02-28T17:38:15.153Z,16.50
2019-02-28T17:40:43.673Z,17.17
2019-02-28T17:43:12.142Z,16.20
2019-02-28T17:45:40.638Z,17.60
2019-02-28T17:48:33.490Z,18.00
2019-02-28T17:51:08.071Z,15.20
2019-02-28T17:54:00.914Z,14.67
2019-02-28T17:56:47.289Z,14.77
2019-02-28T17:59:39.035Z,14.90
2019-02-28T18:02:45.018Z,14.47
2019-02-28T18:05:30.033Z,12.07
2019-02-28T18:08:03.885Z,13.07
2019-02-28T18:10:59.261Z,12.93
2019-02-28T18:13:56.936Z,12.40
2019-02-28T18:16:37.257Z,13.80
2019-02-28T18:19:42.223Z,13.90
2019-02-28T18:22:16.939Z,14.80
2019-02-28T18:25:04.014Z,13.50
2019-02-28T18:27:43.674Z,15.00
2019-02-28T18:30:27.602Z,13.97
2019-02-28T18:32:56.178Z,13.20
2019-02-28T18:35:24.721Z,13.47
2019-02-28T18:37:53.286Z,13.60
2019-02-28T18:40:22.733Z,14.87
2019-02-28T18:42:52.301Z,14.10
2019-02-28T18:45:22.442Z,14.50
2019-02-28T18:47:51.112Z,15.07
2019-02-28T18:50:19.553Z,14.87
2019-02-28T18:52:48.001Z,14.03
2019-02-28T18:55:16.427Z,13.07
2019-02-28T18:57:44.893Z,13.87
2019-02-28T19:00:16.780Z,16.13
2019-02-28T19:02:45.310Z,15.00
2019-02-28T19:05:13.807Z,13.70
2019-02-28T19:07:42.249Z,14.23
2019-02-28T19:10:11.023Z,15.57
2019-02-28T19:12:39.473Z,15.87
2019-02-28T19:15:11.285Z,16.47
2019-02-28T19:17:39.719Z,14.40
2019-02-28T19:20:10.417Z,14.60
2019-02-28T19:22:38.944Z,17.27
2019-02-28T19:25:10.220Z,15.80
2019-02-28T19:27:38.795Z,14.37
2019-02-28T19:30:10.374Z,14.17
2019-02-28T19:32:38.905Z,15.57
2019-02-28T19:35:07.743Z,15.40
2019-02-28T19:37:36.456Z,16.43
2019-02-28T19:40:08.186Z,16.40
2019-02-28T19:42:36.711Z,18.60
2019-02-28T19:45:08.322Z,16.13
2019-02-28T19:47:36.766Z,14.60
2019-02-28T19:50:08.442Z,14.73
2019-02-28T19:52:36.902Z,15.90
2019-02-28T19:55:08.894Z,16.80
2019-02-28T19:57:37.457Z,15.77
2019-02-28T20:00:11.460Z,15.50
2019-02-28T20:02:41.147Z,14.90
2019-02-28T20:05:10.713Z,18.07
2019-02-28T20:07:39.170Z,13.47
2019-02-28T20:10:16.079Z,15.40
2019-02-28T20:12:44.800Z,14.47
2019-02-28T20:15:17.434Z,14.37
2019-02-28T20:17:46.162Z,14.63
2019-02-28T20:20:17.579Z,15.90
2019-02-28T20:22:46.005Z,14.63
2019-02-28T20:25:15.897Z,17.20
2019-02-28T20:27:44.326Z,14.20
2019-02-28T20:30:22.077Z,15.73
2019-02-28T20:32:50.517Z,15.23
2019-02-28T20:35:26.182Z,13.17
2019-02-28T20:37:49.144Z,13.90
2019-02-28T20:40:32.845Z,15.53
2019-02-28T20:43:01.277Z,16.33
2019-02-28T20:45:29.731Z,16.30
2019-02-28T20:47:58.181Z,14.73
2019-02-28T20:50:33.088Z,15.67
2019-02-28T20:53:02.910Z,16.77
2019-02-28T20:55:31.381Z,16.80
2019-02-28T20:57:59.810Z,16.60
2019-02-28T21:00:28.818Z,15.00
2019-02-28T21:02:57.258Z,15.77
2019-02-28T21:05:27.240Z,14.70
2019-02-28T21:07:56.651Z,15.43
2019-02-28T21:10:25.686Z,15.27
2019-02-28T21:12:54.289Z,16.63
2019-02-28T21:15:24.674Z,16.83
2019-02-28T21:17:53.277Z,16.20
2019-02-28T21:20:21.850Z,14.53
2019-02-28T21:22:50.278Z,14.60
2019-02-28T21:25:19.706Z,14.90
2019-02-28T21:27:48.163Z,15.97
2019-02-28T21:30:26.593Z,16.30
2019-02-28T21:32:55.192Z,16.83
2019-02-28T21:35:25.569Z,14.03
2019-02-28T21:37:53.980Z,15.43
2019-02-28T21:40:22.881Z,12.60
2019-02-28T21:42:51.391Z,14.17
2019-02-28T21:45:27.006Z,15.60
2019-02-28T21:47:55.522Z,12.57
2019-02-28T21:50:24.315Z,13.63
2019-02-28T21:52:52.758Z,14.60
2019-02-28T21:55:21.196Z,13.27
2019-02-28T21:57:49.689Z,13.17
2019-02-28T22:00:24.168Z,14.03
2019-02-28T22:02:52.617Z,13.00
2019-02-28T22:05:21.325Z,14.20
2019-02-28T22:07:49.898Z,13.30
2019-02-28T22:10:20.714Z,12.73
2019-02-28T22:12:49.209Z,12.80
2019-02-28T22:15:23.209Z,12.33
2019-02-28T22:17:54.044Z,13.97
2019-02-28T22:20:22.238Z,13.00
2019-02-28T22:22:50.665Z,12.93
2019-02-28T22:25:19.111Z,12.43
2019-02-28T22:27:47.542Z,10.87
2019-02-28T22:30:28.170Z,12.13
2019-02-28T22:32:58.245Z,12.50
2019-02-28T22:35:34.329Z,11.20
2019-02-28T22:38:02.770Z,11.63
2019-02-28T22:40:31.208Z,12.60
2019-02-28T22:42:59.642Z,13.93
2019-02-28T22:45:28.101Z,11.30
2019-02-28T22:47:56.571Z,12.70
2019-02-28T22:50:25.034Z,12.13
2019-02-28T22:52:54.906Z,12.20
2019-02-28T22:55:23.717Z,13.17
2019-02-28T22:57:52.197Z,12.97
2019-02-28T23:00:59.742Z,13.77
2019-02-28T23:03:30.580Z,14.83
2019-02-28T23:05:59.062Z,14.40
2019-02-28T23:08:27.530Z,15.10
2019-02-28T23:10:55.953Z,16.77
2019-02-28T23:13:24.396Z,12.60
2019-02-28T23:15:52.817Z,13.10
2019-02-28T23:18:21.325Z,13.07
2019-02-28T23:20:49.775Z,13.53
2019-02-28T23:23:18.210Z,13.93
2019-02-28T23:25:46.721Z,16.20
2019-02-28T23:28:23.925Z,18.77
2019-02-28T23:31:11.906Z,13.40
2019-02-28T23:33:40.342Z,15.10
2019-02-28T23:36:08.801Z,13.50
2019-02-28T23:38:37.237Z,14.83
2019-02-28T23:41:08.214Z,18.47
2019-02-28T23:43:36.679Z,15.87
2019-02-28T23:46:05.096Z,16.27
2019-02-28T23:48:33.541Z,16.17
2019-02-28T23:51:01.963Z,17.80
2019-02-28T23:53:30.406Z,15.60
2019-02-28T23:55:58.832Z,18.00
2019-02-28T23:58:27.274Z,16.30
